Terminal Aerodrome Forecast
Issued by NWS Spokane, WA

Home | Current Version | Previous Version | Text Only | Print | Product List | Glossary On
Versions: 1 2 3 4 5 6 7 8 9 10 11 12 13 14 15 16 17 18 19 20 21 22 23 24
000
FTUS46 KOTX 272108 AAA
TAFLWS
TAF AMD
KLWS 272108Z 2721/2818 17006KT 4SM -RASN BR OVC025
     FM280400 23010G18KT P6SM VCSH BKN030 OVC050
     FM281500 30007KT 3SM -SHSN OVC030=

USA.gov is the U.S. government's official web portal to all federal, state and local government web resources and services.